Skopje, Macedonia

20. октобар 2017, 03:33 CEST (GMT +0200)
Skopje | | Change Station

Надм.вис. 784 ft 41.97 °N, 21.65 °E | Updated 33 minutes ago

Ведро
Ведро
45 °F
Субјективни осећај 45 °F
С
0
Ветар Променљив Ветар из Северни

Данас
Макс. -- | Мин. -- °F
--% Вероватноћа за падавине
Јуче
Макс. -- | Мин. -- °F
Precip. -- инч
Притисак 30.09 инч
Видљивост -9999.0 миља
Облаци
Тачка росе 41 °F
Влажност ваздуха 87%
Киша 0.00 инч
Висина снега Није доступно.
6:52 AM 5:44 PM
Млад месец, 0% visible
METAR LWSK 200100Z 00000KT CAVOK 07/05 Q1019 NOSIG
Притисак 30.09 инч
Видљивост -9999.0 миља
Облаци
Тачка росе 41 °F
Влажност ваздуха 87%
Киша 0.00 инч
Висина снега Није доступно.
6:52 AM 5:44 PM
Млад месец, 0% visible
METAR LWSK 200100Z 00000KT CAVOK 07/05 Q1019 NOSIG

Get Severe Weather Alerts

Thanks for signing up!

Be on the lookout for a verification email in your inbox.

You'll start receiving the daily forecast at 6 AM.

×

10-Day Weather Forecast

×

Almanac

Астрономија

Oct. 20, 2017 Излазак Залазак
Тренутно време
Цивилни сумрак
Наутички сумрак
Астрономски сумрак
Месец
Трајање видљиве светлости
Обданица
Tomorrow will be .
, % of the Moon is Illuminated

Данашњи екстреми

Највише Најниже

Community

Category 6

Welcome to Category 6. This is the collective home for Weather Underground's featured writeups by Dr. Jeff Masters (right), Bob Henson (left), Chris Burt, and other regular contributors.

Nearby

Квалитет ваздуха (AQ)

  Квалитет ваздуха (AQ) Индекс AQ Загађење
Not available.

Висина снега

станица Висина снега Висина

Земљотрес

Место Удаљеност Магнитуда Време и датум
Минимална магнитуда која се објављује је 2.5

Темп. воде у приобаљу

Место Температура

Stations

Оближње метео-станице

Локација станице Темп. Субјективни осећај Тачка росе Влажност ваздуха Ветар Precip. Надм.вис. Ажурирано Тип